sensor_id;sensor_type;location;lat;lon;timestamp;temperature;humidity
10083;DHT22;5080;48.528;8.078;2023-09-19T00:01:33;18.30;99.90
10083;DHT22;5080;48.528;8.078;2023-09-19T00:04:01;18.40;99.90
10083;DHT22;5080;48.528;8.078;2023-09-19T00:06:28;18.30;99.90
10083;DHT22;5080;48.528;8.078;2023-09-19T00:08:57;18.40;99.90
10083;DHT22;5080;48.528;8.078;2023-09-19T00:11:25;18.40;99.90
10083;DHT22;5080;48.528;8.078;2023-09-19T00:13:52;18.40;99.90
10083;DHT22;5080;48.528;8.078;2023-09-19T00:16:19;18.40;99.90
10083;DHT22;5080;48.528;8.078;2023-09-19T00:18:46;18.40;99.90
10083;DHT22;5080;48.528;8.078;2023-09-19T00:21:15;18.40;99.90
10083;DHT22;5080;48.528;8.078;2023-09-19T00:23:42;18.40;99.90
10083;DHT22;5080;48.528;8.078;2023-09-19T00:26:09;18.40;99.90
10083;DHT22;5080;48.528;8.078;2023-09-19T00:28:36;18.40;99.90
10083;DHT22;5080;48.528;8.078;2023-09-19T00:31:03;18.40;99.90
10083;DHT22;5080;48.528;8.078;2023-09-19T00:33:30;18.40;99.90
10083;DHT22;5080;48.528;8.078;2023-09-19T00:35:57;18.40;99.90
10083;DHT22;5080;48.528;8.078;2023-09-19T00:38:26;18.40;99.90
10083;DHT22;5080;48.528;8.078;2023-09-19T00:40:54;18.40;99.90
10083;DHT22;5080;48.528;8.078;2023-09-19T00:43:22;18.40;99.90
10083;DHT22;5080;48.528;8.078;2023-09-19T00:45:51;18.30;99.90
10083;DHT22;5080;48.528;8.078;2023-09-19T00:48:19;18.30;99.90
10083;DHT22;5080;48.528;8.078;2023-09-19T00:50:47;18.30;99.90
10083;DHT22;5080;48.528;8.078;2023-09-19T00:53:17;18.30;99.90
10083;DHT22;5080;48.528;8.078;2023-09-19T00:55:47;18.30;99.90
10083;DHT22;5080;48.528;8.078;2023-09-19T00:58:16;18.30;99.90
10083;DHT22;5080;48.528;8.078;2023-09-19T01:00:44;18.30;99.90
10083;DHT22;5080;48.528;8.078;2023-09-19T01:03:10;18.30;99.90
10083;DHT22;5080;48.528;8.078;2023-09-19T01:05:38;18.30;99.90
10083;DHT22;5080;48.528;8.078;2023-09-19T01:08:06;18.30;99.90
10083;DHT22;5080;48.528;8.078;2023-09-19T01:10:33;18.20;99.90
10083;DHT22;5080;48.528;8.078;2023-09-19T01:13:13;18.20;99.90
10083;DHT22;5080;48.528;8.078;2023-09-19T01:15:51;18.20;99.90
10083;DHT22;5080;48.528;8.078;2023-09-19T01:18:30;18.20;99.90
10083;DHT22;5080;48.528;8.078;2023-09-19T01:21:05;18.20;99.90
10083;DHT22;5080;48.528;8.078;2023-09-19T01:23:49;18.10;99.90
10083;DHT22;5080;48.528;8.078;2023-09-19T01:26:33;18.10;99.90
10083;DHT22;5080;48.528;8.078;2023-09-19T01:29:23;18.10;99.90
10083;DHT22;5080;48.528;8.078;2023-09-19T01:31:58;18.20;99.90
10083;DHT22;5080;48.528;8.078;2023-09-19T01:34:27;18.00;99.90
10083;DHT22;5080;48.528;8.078;2023-09-19T01:36:53;18.00;99.90
10083;DHT22;5080;48.528;8.078;2023-09-19T01:39:20;18.00;99.90
10083;DHT22;5080;48.528;8.078;2023-09-19T01:41:54;18.00;99.90
10083;DHT22;5080;48.528;8.078;2023-09-19T01:44:29;18.00;99.90
10083;DHT22;5080;48.528;8.078;2023-09-19T01:47:02;18.00;99.90
10083;DHT22;5080;48.528;8.078;2023-09-19T01:49:37;18.10;99.90
10083;DHT22;5080;48.528;8.078;2023-09-19T01:52:11;18.10;99.90
10083;DHT22;5080;48.528;8.078;2023-09-19T01:54:47;18.10;99.90
10083;DHT22;5080;48.528;8.078;2023-09-19T01:57:20;18.10;99.90
10083;DHT22;5080;48.528;8.078;2023-09-19T01:59:52;18.10;99.90
10083;DHT22;5080;48.528;8.078;2023-09-19T02:02:23;18.10;99.90
10083;DHT22;5080;48.528;8.078;2023-09-19T02:04:51;18.10;99.90
10083;DHT22;5080;48.528;8.078;2023-09-19T02:07:19;18.10;99.90
10083;DHT22;5080;48.528;8.078;2023-09-19T02:09:46;18.10;99.90
10083;DHT22;5080;48.528;8.078;2023-09-19T02:12:13;18.20;99.90
10083;DHT22;5080;48.528;8.078;2023-09-19T02:14:41;18.10;99.90
10083;DHT22;5080;48.528;8.078;2023-09-19T02:17:08;18.10;99.90
10083;DHT22;5080;48.528;8.078;2023-09-19T02:19:38;18.10;99.90
10083;DHT22;5080;48.528;8.078;2023-09-19T02:22:07;18.10;99.90
10083;DHT22;5080;48.528;8.078;2023-09-19T02:24:36;18.10;99.90
10083;DHT22;5080;48.528;8.078;2023-09-19T02:27:04;18.10;99.90
10083;DHT22;5080;48.528;8.078;2023-09-19T02:29:33;18.10;99.90
10083;DHT22;5080;48.528;8.078;2023-09-19T02:32:00;18.10;99.90
10083;DHT22;5080;48.528;8.078;2023-09-19T02:34:28;18.10;99.90
10083;DHT22;5080;48.528;8.078;2023-09-19T02:36:56;18.10;99.90
10083;DHT22;5080;48.528;8.078;2023-09-19T02:39:23;18.10;99.90
10083;DHT22;5080;48.528;8.078;2023-09-19T02:41:50;18.10;99.90
10083;DHT22;5080;48.528;8.078;2023-09-19T02:44:17;18.10;99.90
10083;DHT22;5080;48.528;8.078;2023-09-19T02:46:45;18.10;99.90
10083;DHT22;5080;48.528;8.078;2023-09-19T02:49:12;18.10;99.90
10083;DHT22;5080;48.528;8.078;2023-09-19T02:51:40;18.20;99.90
10083;DHT22;5080;48.528;8.078;2023-09-19T02:54:09;18.30;99.90
10083;DHT22;5080;48.528;8.078;2023-09-19T02:56:37;18.30;99.90
10083;DHT22;5080;48.528;8.078;2023-09-19T02:59:04;18.30;99.90
10083;DHT22;5080;48.528;8.078;2023-09-19T03:01:31;18.20;99.90
10083;DHT22;5080;48.528;8.078;2023-09-19T03:03:59;18.30;99.90
10083;DHT22;5080;48.528;8.078;2023-09-19T03:06:26;18.30;99.90
10083;DHT22;5080;48.528;8.078;2023-09-19T03:08:53;18.30;99.90
10083;DHT22;5080;48.528;8.078;2023-09-19T03:11:23;18.20;99.90
10083;DHT22;5080;48.528;8.078;2023-09-19T03:13:53;18.20;99.90
10083;DHT22;5080;48.528;8.078;2023-09-19T03:16:20;18.20;99.90
10083;DHT22;5080;48.528;8.078;2023-09-19T03:18:48;18.20;99.90
10083;DHT22;5080;48.528;8.078;2023-09-19T03:21:15;18.10;99.90
10083;DHT22;5080;48.528;8.078;2023-09-19T03:23:42;18.20;99.90
10083;DHT22;5080;48.528;8.078;2023-09-19T03:26:11;18.20;99.90
10083;DHT22;5080;48.528;8.078;2023-09-19T03:28:39;18.20;99.90
10083;DHT22;5080;48.528;8.078;2023-09-19T03:31:06;18.20;99.90
10083;DHT22;5080;48.528;8.078;2023-09-19T03:33:34;18.20;99.90
10083;DHT22;5080;48.528;8.078;2023-09-19T03:36:01;18.20;99.90
10083;DHT22;5080;48.528;8.078;2023-09-19T03:38:30;18.20;99.90
10083;DHT22;5080;48.528;8.078;2023-09-19T03:40:57;18.30;99.90
10083;DHT22;5080;48.528;8.078;2023-09-19T03:43:24;18.30;99.90
10083;DHT22;5080;48.528;8.078;2023-09-19T03:45:52;18.20;99.90
10083;DHT22;5080;48.528;8.078;2023-09-19T03:48:20;18.30;99.90
10083;DHT22;5080;48.528;8.078;2023-09-19T03:50:48;18.30;99.90
10083;DHT22;5080;48.528;8.078;2023-09-19T03:53:15;18.30;99.90
10083;DHT22;5080;48.528;8.078;2023-09-19T03:55:44;18.40;99.90
10083;DHT22;5080;48.528;8.078;2023-09-19T03:58:11;18.40;99.90
10083;DHT22;5080;48.528;8.078;2023-09-19T04:00:38;18.40;99.90
10083;DHT22;5080;48.528;8.078;2023-09-19T04:03:06;18.40;99.90
10083;DHT22;5080;48.528;8.078;2023-09-19T04:05:33;18.40;99.90
10083;DHT22;5080;48.528;8.078;2023-09-19T04:08:00;18.40;99.90
10083;DHT22;5080;48.528;8.078;2023-09-19T04:10:27;18.40;99.90
10083;DHT22;5080;48.528;8.078;2023-09-19T04:12:54;18.40;99.90
10083;DHT22;5080;48.528;8.078;2023-09-19T04:15:22;18.40;99.90
10083;DHT22;5080;48.528;8.078;2023-09-19T04:17:49;18.50;99.90
10083;DHT22;5080;48.528;8.078;2023-09-19T04:20:17;18.30;99.90
10083;DHT22;5080;48.528;8.078;2023-09-19T04:22:45;18.30;99.90
10083;DHT22;5080;48.528;8.078;2023-09-19T04:25:12;18.40;99.90
10083;DHT22;5080;48.528;8.078;2023-09-19T04:27:40;18.30;99.90
10083;DHT22;5080;48.528;8.078;2023-09-19T04:30:08;18.30;99.90
10083;DHT22;5080;48.528;8.078;2023-09-19T04:32:37;18.20;99.90
10083;DHT22;5080;48.528;8.078;2023-09-19T04:35:06;18.60;99.90
10083;DHT22;5080;48.528;8.078;2023-09-19T04:37:38;18.90;99.90
10083;DHT22;5080;48.528;8.078;2023-09-19T04:40:07;18.90;99.90
10083;DHT22;5080;48.528;8.078;2023-09-19T04:42:38;18.80;99.90
10083;DHT22;5080;48.528;8.078;2023-09-19T04:45:06;18.90;99.90
10083;DHT22;5080;48.528;8.078;2023-09-19T04:47:34;18.90;99.90
10083;DHT22;5080;48.528;8.078;2023-09-19T04:50:00;18.90;99.90
10083;DHT22;5080;48.528;8.078;2023-09-19T04:52:30;18.80;99.90
10083;DHT22;5080;48.528;8.078;2023-09-19T04:54:59;18.60;99.90
10083;DHT22;5080;48.528;8.078;2023-09-19T04:57:25;18.40;99.90
10083;DHT22;5080;48.528;8.078;2023-09-19T04:59:53;18.40;99.90
10083;DHT22;5080;48.528;8.078;2023-09-19T05:02:20;18.40;99.90
10083;DHT22;5080;48.528;8.078;2023-09-19T05:04:47;18.40;99.90
10083;DHT22;5080;48.528;8.078;2023-09-19T05:07:14;18.40;99.90
10083;DHT22;5080;48.528;8.078;2023-09-19T05:09:41;18.40;99.90
10083;DHT22;5080;48.528;8.078;2023-09-19T05:12:10;18.40;99.90
10083;DHT22;5080;48.528;8.078;2023-09-19T05:14:37;18.30;99.90
10083;DHT22;5080;48.528;8.078;2023-09-19T05:17:06;18.30;99.90
10083;DHT22;5080;48.528;8.078;2023-09-19T05:19:33;18.40;99.90
10083;DHT22;5080;48.528;8.078;2023-09-19T05:22:00;18.40;99.90
10083;DHT22;5080;48.528;8.078;2023-09-19T05:24:29;18.40;99.90
10083;DHT22;5080;48.528;8.078;2023-09-19T05:26:56;18.40;99.90
10083;DHT22;5080;48.528;8.078;2023-09-19T05:29:25;18.40;99.90
10083;DHT22;5080;48.528;8.078;2023-09-19T05:31:52;18.50;99.90
10083;DHT22;5080;48.528;8.078;2023-09-19T05:34:20;18.40;99.90
10083;DHT22;5080;48.528;8.078;2023-09-19T05:36:47;18.40;99.90
10083;DHT22;5080;48.528;8.078;2023-09-19T05:39:14;18.30;99.90
10083;DHT22;5080;48.528;8.078;2023-09-19T05:41:41;18.40;99.90
10083;DHT22;5080;48.528;8.078;2023-09-19T05:44:08;18.30;99.90
10083;DHT22;5080;48.528;8.078;2023-09-19T05:46:36;18.40;99.90
10083;DHT22;5080;48.528;8.078;2023-09-19T05:49:03;18.50;99.90
10083;DHT22;5080;48.528;8.078;2023-09-19T05:51:30;18.40;99.90
10083;DHT22;5080;48.528;8.078;2023-09-19T05:53:57;18.40;99.90
10083;DHT22;5080;48.528;8.078;2023-09-19T05:56:24;18.40;99.90
10083;DHT22;5080;48.528;8.078;2023-09-19T05:58:50;18.40;99.90
10083;DHT22;5080;48.528;8.078;2023-09-19T06:01:18;18.40;99.90
10083;DHT22;5080;48.528;8.078;2023-09-19T06:03:47;18.30;99.90
10083;DHT22;5080;48.528;8.078;2023-09-19T06:06:14;18.30;99.90
10083;DHT22;5080;48.528;8.078;2023-09-19T06:08:40;18.30;99.90
10083;DHT22;5080;48.528;8.078;2023-09-19T06:11:09;18.40;99.90
10083;DHT22;5080;48.528;8.078;2023-09-19T06:13:36;18.40;99.90
10083;DHT22;5080;48.528;8.078;2023-09-19T06:16:04;18.40;99.90
10083;DHT22;5080;48.528;8.078;2023-09-19T06:18:31;18.40;99.90
10083;DHT22;5080;48.528;8.078;2023-09-19T06:21:00;18.50;99.90
10083;DHT22;5080;48.528;8.078;2023-09-19T06:23:30;18.40;99.90
10083;DHT22;5080;48.528;8.078;2023-09-19T06:25:57;18.40;99.90
10083;DHT22;5080;48.528;8.078;2023-09-19T06:28:24;18.40;99.90
10083;DHT22;5080;48.528;8.078;2023-09-19T06:30:53;18.50;99.90
10083;DHT22;5080;48.528;8.078;2023-09-19T06:33:20;18.40;99.90
10083;DHT22;5080;48.528;8.078;2023-09-19T06:35:48;18.40;99.90
10083;DHT22;5080;48.528;8.078;2023-09-19T06:38:16;18.40;99.90
10083;DHT22;5080;48.528;8.078;2023-09-19T06:40:44;18.40;99.90
10083;DHT22;5080;48.528;8.078;2023-09-19T06:43:11;18.40;99.90
10083;DHT22;5080;48.528;8.078;2023-09-19T06:45:39;18.50;99.90
10083;DHT22;5080;48.528;8.078;2023-09-19T06:48:06;18.50;99.90
10083;DHT22;5080;48.528;8.078;2023-09-19T06:50:35;18.50;99.90
10083;DHT22;5080;48.528;8.078;2023-09-19T06:53:03;18.60;99.90
10083;DHT22;5080;48.528;8.078;2023-09-19T06:55:31;18.60;99.90
10083;DHT22;5080;48.528;8.078;2023-09-19T06:57:59;18.70;99.90
10083;DHT22;5080;48.528;8.078;2023-09-19T07:00:26;18.60;99.90
10083;DHT22;5080;48.528;8.078;2023-09-19T07:02:57;18.70;99.90
10083;DHT22;5080;48.528;8.078;2023-09-19T07:05:26;18.80;99.90
10083;DHT22;5080;48.528;8.078;2023-09-19T07:07:54;18.90;99.90
10083;DHT22;5080;48.528;8.078;2023-09-19T07:10:22;18.90;99.90
10083;DHT22;5080;48.528;8.078;2023-09-19T07:12:56;19.00;99.90
10083;DHT22;5080;48.528;8.078;2023-09-19T07:15:23;19.10;99.90
10083;DHT22;5080;48.528;8.078;2023-09-19T07:17:51;19.20;99.90
10083;DHT22;5080;48.528;8.078;2023-09-19T07:20:18;19.20;99.90
10083;DHT22;5080;48.528;8.078;2023-09-19T07:22:45;19.10;99.90
10083;DHT22;5080;48.528;8.078;2023-09-19T07:25:13;19.10;99.90
10083;DHT22;5080;48.528;8.078;2023-09-19T07:27:40;19.20;99.90
10083;DHT22;5080;48.528;8.078;2023-09-19T07:30:10;19.10;99.90
10083;DHT22;5080;48.528;8.078;2023-09-19T07:32:37;19.10;99.90
10083;DHT22;5080;48.528;8.078;2023-09-19T07:35:05;19.30;99.90
10083;DHT22;5080;48.528;8.078;2023-09-19T07:37:32;19.40;99.90
10083;DHT22;5080;48.528;8.078;2023-09-19T07:39:59;19.50;99.90
10083;DHT22;5080;48.528;8.078;2023-09-19T07:42:26;19.60;99.90
10083;DHT22;5080;48.528;8.078;2023-09-19T07:44:53;19.70;99.90
10083;DHT22;5080;48.528;8.078;2023-09-19T07:47:21;19.80;99.90
10083;DHT22;5080;48.528;8.078;2023-09-19T07:49:48;19.90;99.90
10083;DHT22;5080;48.528;8.078;2023-09-19T07:52:15;19.90;99.90
10083;DHT22;5080;48.528;8.078;2023-09-19T07:54:42;20.10;99.90
10083;DHT22;5080;48.528;8.078;2023-09-19T07:57:10;20.30;99.90
10083;DHT22;5080;48.528;8.078;2023-09-19T07:59:38;20.40;99.90
10083;DHT22;5080;48.528;8.078;2023-09-19T08:02:07;20.60;99.90
10083;DHT22;5080;48.528;8.078;2023-09-19T08:04:36;20.70;99.90
10083;DHT22;5080;48.528;8.078;2023-09-19T08:07:03;20.80;99.90
10083;DHT22;5080;48.528;8.078;2023-09-19T08:09:31;21.00;99.90
10083;DHT22;5080;48.528;8.078;2023-09-19T08:11:59;21.00;99.90
10083;DHT22;5080;48.528;8.078;2023-09-19T08:14:29;21.20;99.90
10083;DHT22;5080;48.528;8.078;2023-09-19T08:16:57;21.20;99.90
10083;DHT22;5080;48.528;8.078;2023-09-19T08:19:24;21.40;99.90
10083;DHT22;5080;48.528;8.078;2023-09-19T08:21:56;21.50;99.90
10083;DHT22;5080;48.528;8.078;2023-09-19T08:24:24;21.60;99.90
10083;DHT22;5080;48.528;8.078;2023-09-19T08:26:53;21.70;99.90
10083;DHT22;5080;48.528;8.078;2023-09-19T08:29:20;21.80;99.90
10083;DHT22;5080;48.528;8.078;2023-09-19T08:31:47;21.90;99.90
10083;DHT22;5080;48.528;8.078;2023-09-19T08:34:15;21.70;99.90
10083;DHT22;5080;48.528;8.078;2023-09-19T08:36:42;21.80;99.90
10083;DHT22;5080;48.528;8.078;2023-09-19T08:39:11;21.70;99.90
10083;DHT22;5080;48.528;8.078;2023-09-19T08:41:39;21.50;99.90
10083;DHT22;5080;48.528;8.078;2023-09-19T08:44:06;21.50;99.90
10083;DHT22;5080;48.528;8.078;2023-09-19T08:46:34;21.60;99.90
10083;DHT22;5080;48.528;8.078;2023-09-19T08:49:05;21.40;99.90
10083;DHT22;5080;48.528;8.078;2023-09-19T08:51:41;21.20;99.90
10083;DHT22;5080;48.528;8.078;2023-09-19T08:54:17;21.00;99.90
10083;DHT22;5080;48.528;8.078;2023-09-19T08:56:49;20.70;99.90
10083;DHT22;5080;48.528;8.078;2023-09-19T08:59:17;20.60;99.90
10083;DHT22;5080;48.528;8.078;2023-09-19T09:01:50;20.60;99.90
10083;DHT22;5080;48.528;8.078;2023-09-19T09:04:19;20.70;99.90
10083;DHT22;5080;48.528;8.078;2023-09-19T09:06:46;20.70;99.90
10083;DHT22;5080;48.528;8.078;2023-09-19T09:09:17;20.80;99.90
10083;DHT22;5080;48.528;8.078;2023-09-19T09:11:45;20.90;99.90
10083;DHT22;5080;48.528;8.078;2023-09-19T09:14:12;20.90;99.90
10083;DHT22;5080;48.528;8.078;2023-09-19T09:16:40;20.90;99.90
10083;DHT22;5080;48.528;8.078;2023-09-19T09:19:08;20.90;99.90
10083;DHT22;5080;48.528;8.078;2023-09-19T09:21:36;20.90;99.90
10083;DHT22;5080;48.528;8.078;2023-09-19T09:24:29;20.80;99.90
10083;DHT22;5080;48.528;8.078;2023-09-19T09:26:59;20.90;99.90
10083;DHT22;5080;48.528;8.078;2023-09-19T09:29:44;20.90;99.90
10083;DHT22;5080;48.528;8.078;2023-09-19T09:32:21;20.90;99.90
10083;DHT22;5080;48.528;8.078;2023-09-19T09:34:51;20.80;99.90
10083;DHT22;5080;48.528;8.078;2023-09-19T09:37:18;20.60;99.90
10083;DHT22;5080;48.528;8.078;2023-09-19T09:39:54;20.50;99.90
10083;DHT22;5080;48.528;8.078;2023-09-19T09:42:31;20.40;99.90
10083;DHT22;5080;48.528;8.078;2023-09-19T09:45:16;20.40;99.90
10083;DHT22;5080;48.528;8.078;2023-09-19T09:47:44;20.40;99.90
10083;DHT22;5080;48.528;8.078;2023-09-19T09:50:27;20.30;99.90
10083;DHT22;5080;48.528;8.078;2023-09-19T09:53:25;20.30;99.90
10083;DHT22;5080;48.528;8.078;2023-09-19T09:56:02;20.80;99.90
10083;DHT22;5080;48.528;8.078;2023-09-19T09:58:31;20.80;99.90
10083;DHT22;5080;48.528;8.078;2023-09-19T10:00:59;20.90;99.90
10083;DHT22;5080;48.528;8.078;2023-09-19T10:03:35;20.90;99.90
10083;DHT22;5080;48.528;8.078;2023-09-19T10:06:07;20.80;99.90
10083;DHT22;5080;48.528;8.078;2023-09-19T10:09:01;20.80;99.90
10083;DHT22;5080;48.528;8.078;2023-09-19T10:11:41;21.00;99.90
10083;DHT22;5080;48.528;8.078;2023-09-19T10:14:09;21.40;99.90
10083;DHT22;5080;48.528;8.078;2023-09-19T10:16:40;21.50;99.90
10083;DHT22;5080;48.528;8.078;2023-09-19T10:19:09;21.60;99.90
10083;DHT22;5080;48.528;8.078;2023-09-19T10:21:38;21.70;99.90
10083;DHT22;5080;48.528;8.078;2023-09-19T10:24:07;21.80;99.90
10083;DHT22;5080;48.528;8.078;2023-09-19T10:26:37;22.10;99.90
10083;DHT22;5080;48.528;8.078;2023-09-19T10:29:06;22.40;99.90
10083;DHT22;5080;48.528;8.078;2023-09-19T10:31:36;22.70;99.90
10083;DHT22;5080;48.528;8.078;2023-09-19T10:34:07;22.80;99.90
10083;DHT22;5080;48.528;8.078;2023-09-19T10:36:36;23.00;99.90
10083;DHT22;5080;48.528;8.078;2023-09-19T10:39:05;23.20;99.90
10083;DHT22;5080;48.528;8.078;2023-09-19T10:41:35;23.50;99.90
10083;DHT22;5080;48.528;8.078;2023-09-19T10:44:04;23.80;99.90
10083;DHT22;5080;48.528;8.078;2023-09-19T10:46:32;24.20;99.90
10083;DHT22;5080;48.528;8.078;2023-09-19T10:48:59;24.40;99.90
10083;DHT22;5080;48.528;8.078;2023-09-19T10:51:29;24.60;99.90
10083;DHT22;5080;48.528;8.078;2023-09-19T10:54:01;24.90;99.90
10083;DHT22;5080;48.528;8.078;2023-09-19T10:56:33;24.90;99.90
10083;DHT22;5080;48.528;8.078;2023-09-19T10:59:08;24.90;99.90
10083;DHT22;5080;48.528;8.078;2023-09-19T11:01:45;25.00;99.90
10083;DHT22;5080;48.528;8.078;2023-09-19T11:04:24;25.10;99.90
10083;DHT22;5080;48.528;8.078;2023-09-19T11:07:04;25.30;99.90
10083;DHT22;5080;48.528;8.078;2023-09-19T11:09:47;25.30;99.90
10083;DHT22;5080;48.528;8.078;2023-09-19T11:12:48;25.40;99.90
10083;DHT22;5080;48.528;8.078;2023-09-19T11:18:53;24.90;99.90
10083;DHT22;5080;48.528;8.078;2023-09-19T11:21:54;24.90;99.90
10083;DHT22;5080;48.528;8.078;2023-09-19T11:24:31;25.00;99.90
10083;DHT22;5080;48.528;8.078;2023-09-19T11:27:14;24.90;99.90
10083;DHT22;5080;48.528;8.078;2023-09-19T11:29:43;24.90;99.90
10083;DHT22;5080;48.528;8.078;2023-09-19T11:32:10;24.80;99.90
10083;DHT22;5080;48.528;8.078;2023-09-19T11:34:46;24.70;99.90
10083;DHT22;5080;48.528;8.078;2023-09-19T11:40:45;24.30;99.90
10083;DHT22;5080;48.528;8.078;2023-09-19T11:43:32;23.80;99.90
10083;DHT22;5080;48.528;8.078;2023-09-19T11:46:04;23.50;99.90
10083;DHT22;5080;48.528;8.078;2023-09-19T11:48:31;23.90;99.90
10083;DHT22;5080;48.528;8.078;2023-09-19T11:51:00;24.20;99.90
10083;DHT22;5080;48.528;8.078;2023-09-19T11:53:33;24.50;99.90
10083;DHT22;5080;48.528;8.078;2023-09-19T11:56:04;24.60;99.90
10083;DHT22;5080;48.528;8.078;2023-09-19T11:58:32;24.80;99.90
10083;DHT22;5080;48.528;8.078;2023-09-19T12:01:00;24.80;99.90
10083;DHT22;5080;48.528;8.078;2023-09-19T12:03:35;24.80;99.90
10083;DHT22;5080;48.528;8.078;2023-09-19T12:06:12;24.80;99.90
10083;DHT22;5080;48.528;8.078;2023-09-19T12:08:40;24.70;99.90
10083;DHT22;5080;48.528;8.078;2023-09-19T12:11:15;24.80;99.90
10083;DHT22;5080;48.528;8.078;2023-09-19T12:13:43;25.00;99.90
10083;DHT22;5080;48.528;8.078;2023-09-19T12:16:13;25.20;99.90
10083;DHT22;5080;48.528;8.078;2023-09-19T12:18:41;25.30;99.90
10083;DHT22;5080;48.528;8.078;2023-09-19T12:21:28;25.30;99.90
10083;DHT22;5080;48.528;8.078;2023-09-19T12:24:04;25.30;99.90
10083;DHT22;5080;48.528;8.078;2023-09-19T12:26:41;25.30;99.90
10083;DHT22;5080;48.528;8.078;2023-09-19T12:29:16;25.50;99.90
10083;DHT22;5080;48.528;8.078;2023-09-19T12:31:48;25.50;99.90
10083;DHT22;5080;48.528;8.078;2023-09-19T12:34:17;25.60;99.90
10083;DHT22;5080;48.528;8.078;2023-09-19T12:36:46;25.70;99.90
10083;DHT22;5080;48.528;8.078;2023-09-19T12:39:23;25.80;99.90
10083;DHT22;5080;48.528;8.078;2023-09-19T12:41:52;26.00;99.90
10083;DHT22;5080;48.528;8.078;2023-09-19T12:44:20;26.10;99.90
10083;DHT22;5080;48.528;8.078;2023-09-19T12:46:47;26.00;99.90
10083;DHT22;5080;48.528;8.078;2023-09-19T12:49:18;26.00;99.90
10083;DHT22;5080;48.528;8.078;2023-09-19T12:51:47;26.00;99.90
10083;DHT22;5080;48.528;8.078;2023-09-19T12:54:14;26.00;99.90
10083;DHT22;5080;48.528;8.078;2023-09-19T12:56:42;26.00;99.90
10083;DHT22;5080;48.528;8.078;2023-09-19T12:59:12;26.00;99.90
10083;DHT22;5080;48.528;8.078;2023-09-19T13:01:40;26.00;99.90
10083;DHT22;5080;48.528;8.078;2023-09-19T13:04:15;26.00;99.90
10083;DHT22;5080;48.528;8.078;2023-09-19T13:06:46;25.80;99.90
10083;DHT22;5080;48.528;8.078;2023-09-19T13:09:15;25.80;99.90
10083;DHT22;5080;48.528;8.078;2023-09-19T13:11:42;25.80;99.90
10083;DHT22;5080;48.528;8.078;2023-09-19T13:14:16;25.90;99.90
10083;DHT22;5080;48.528;8.078;2023-09-19T13:16:58;26.00;99.90
10083;DHT22;5080;48.528;8.078;2023-09-19T13:19:41;26.10;99.90
10083;DHT22;5080;48.528;8.078;2023-09-19T13:22:39;26.10;99.90
10083;DHT22;5080;48.528;8.078;2023-09-19T13:25:08;26.00;99.90
10083;DHT22;5080;48.528;8.078;2023-09-19T13:27:39;26.00;99.90
10083;DHT22;5080;48.528;8.078;2023-09-19T13:30:07;25.90;99.90
10083;DHT22;5080;48.528;8.078;2023-09-19T13:32:34;25.90;99.90
10083;DHT22;5080;48.528;8.078;2023-09-19T13:35:01;25.90;99.90
10083;DHT22;5080;48.528;8.078;2023-09-19T13:37:28;26.00;99.90
10083;DHT22;5080;48.528;8.078;2023-09-19T13:39:56;26.00;99.90
10083;DHT22;5080;48.528;8.078;2023-09-19T13:42:25;25.80;99.90
10083;DHT22;5080;48.528;8.078;2023-09-19T13:44:55;25.90;99.90
10083;DHT22;5080;48.528;8.078;2023-09-19T13:47:22;25.90;99.90
10083;DHT22;5080;48.528;8.078;2023-09-19T13:49:52;26.00;99.90
10083;DHT22;5080;48.528;8.078;2023-09-19T13:52:19;26.20;99.90
10083;DHT22;5080;48.528;8.078;2023-09-19T13:54:47;26.20;99.90
10083;DHT22;5080;48.528;8.078;2023-09-19T13:57:16;26.00;99.90
10083;DHT22;5080;48.528;8.078;2023-09-19T13:59:43;26.00;99.90
10083;DHT22;5080;48.528;8.078;2023-09-19T14:02:10;26.10;99.90
10083;DHT22;5080;48.528;8.078;2023-09-19T14:04:37;25.90;99.90
10083;DHT22;5080;48.528;8.078;2023-09-19T14:07:03;25.90;99.90
10083;DHT22;5080;48.528;8.078;2023-09-19T14:09:32;25.90;99.90
10083;DHT22;5080;48.528;8.078;2023-09-19T14:12:00;25.90;99.90
10083;DHT22;5080;48.528;8.078;2023-09-19T14:14:28;26.00;99.90
10083;DHT22;5080;48.528;8.078;2023-09-19T14:16:55;25.90;99.90
10083;DHT22;5080;48.528;8.078;2023-09-19T14:19:22;26.00;99.90
10083;DHT22;5080;48.528;8.078;2023-09-19T14:21:50;26.00;99.90
10083;DHT22;5080;48.528;8.078;2023-09-19T14:24:21;26.00;99.90
10083;DHT22;5080;48.528;8.078;2023-09-19T14:26:48;26.00;99.90
10083;DHT22;5080;48.528;8.078;2023-09-19T14:29:16;26.00;99.90
10083;DHT22;5080;48.528;8.078;2023-09-19T14:31:44;26.00;99.90
10083;DHT22;5080;48.528;8.078;2023-09-19T14:34:11;26.20;99.90
10083;DHT22;5080;48.528;8.078;2023-09-19T14:36:38;26.20;99.90
10083;DHT22;5080;48.528;8.078;2023-09-19T14:39:05;26.30;99.90
10083;DHT22;5080;48.528;8.078;2023-09-19T14:41:33;26.30;99.90
10083;DHT22;5080;48.528;8.078;2023-09-19T14:44:02;26.40;99.90
10083;DHT22;5080;48.528;8.078;2023-09-19T14:46:29;26.40;99.90
10083;DHT22;5080;48.528;8.078;2023-09-19T14:48:57;26.40;99.90
10083;DHT22;5080;48.528;8.078;2023-09-19T14:51:25;26.40;99.90
10083;DHT22;5080;48.528;8.078;2023-09-19T14:53:53;26.20;99.90
10083;DHT22;5080;48.528;8.078;2023-09-19T14:56:20;26.10;99.90
10083;DHT22;5080;48.528;8.078;2023-09-19T14:58:49;26.20;99.90
10083;DHT22;5080;48.528;8.078;2023-09-19T15:01:16;26.20;99.90
10083;DHT22;5080;48.528;8.078;2023-09-19T15:03:43;26.10;99.90
10083;DHT22;5080;48.528;8.078;2023-09-19T15:06:13;26.10;99.90
10083;DHT22;5080;48.528;8.078;2023-09-19T15:08:42;26.10;99.90
10083;DHT22;5080;48.528;8.078;2023-09-19T15:11:11;26.10;99.90
10083;DHT22;5080;48.528;8.078;2023-09-19T15:13:38;26.00;99.90
10083;DHT22;5080;48.528;8.078;2023-09-19T15:16:07;26.00;99.90
10083;DHT22;5080;48.528;8.078;2023-09-19T15:18:35;25.90;99.90
10083;DHT22;5080;48.528;8.078;2023-09-19T15:21:03;26.00;99.90
10083;DHT22;5080;48.528;8.078;2023-09-19T15:23:32;26.00;99.90
10083;DHT22;5080;48.528;8.078;2023-09-19T15:25:59;26.00;99.90
10083;DHT22;5080;48.528;8.078;2023-09-19T15:28:27;26.00;99.90
10083;DHT22;5080;48.528;8.078;2023-09-19T15:30:59;26.00;99.90
10083;DHT22;5080;48.528;8.078;2023-09-19T15:33:26;25.80;99.90
10083;DHT22;5080;48.528;8.078;2023-09-19T15:36:01;25.50;99.90
10083;DHT22;5080;48.528;8.078;2023-09-19T15:38:29;25.30;99.90
10083;DHT22;5080;48.528;8.078;2023-09-19T15:40:58;25.20;99.90
10083;DHT22;5080;48.528;8.078;2023-09-19T15:43:25;25.10;99.90
10083;DHT22;5080;48.528;8.078;2023-09-19T15:45:52;25.00;99.90
10083;DHT22;5080;48.528;8.078;2023-09-19T15:48:19;24.90;99.90
10083;DHT22;5080;48.528;8.078;2023-09-19T15:50:47;24.90;99.90
10083;DHT22;5080;48.528;8.078;2023-09-19T15:53:14;24.90;99.90
10083;DHT22;5080;48.528;8.078;2023-09-19T15:55:42;24.90;99.90
10083;DHT22;5080;48.528;8.078;2023-09-19T15:58:10;24.80;99.90
10083;DHT22;5080;48.528;8.078;2023-09-19T16:00:40;24.80;99.90
10083;DHT22;5080;48.528;8.078;2023-09-19T16:03:07;24.80;99.90
10083;DHT22;5080;48.528;8.078;2023-09-19T16:05:37;24.80;99.90
10083;DHT22;5080;48.528;8.078;2023-09-19T16:08:06;24.80;99.90